Time;durP1;ratioP1;P1;durP2;ratioP2;P2;SDS_P1;SDS_P2;PMS_P1;PMS_P2;Temp;Humidity;BMP_temperature;BMP_pressure;BME280_temperature;BME280_humidity;BME280_pressure;Samples;Min_cycle;Max_cycle;Signal;HPM_P1;HPM_P2
2022/05/25 00:00:18;;;;;;;2.42;1.25;;;;;;;15.66;69.63;98530.59;5085166;28;20060;-77
2022/05/25 00:02:46;;;;;;;4.53;1.75;;;;;;;16.59;69.11;98720.03;5085408;28;20052;-77
2022/05/25 00:05:15;;;;;;;2.97;1.70;;;;;;;16.08;69.46;98570.50;5085378;28;20056;-77
2022/05/25 00:07:43;;;;;;;2.17;1.52;;;;;;;16.60;69.09;98668.22;5085409;28;20060;-77
2022/05/25 00:10:11;;;;;;;2.35;1.52;;;;;;;16.60;69.03;98665.56;5085373;28;20109;-77
2022/05/25 00:12:40;;;;;;;1.92;1.33;;;;;;;16.58;69.17;98670.19;5085452;28;20240;-77
2022/05/25 00:15:11;;;;;;;4.53;1.42;;;;;;;16.57;69.21;98663.16;5085533;28;20056;-78
2022/05/25 00:17:38;;;;;;;2.30;1.40;;;;;;;16.60;69.31;98665.56;5085568;28;20056;-77
2022/05/25 00:20:07;;;;;;;2.85;1.58;;;;;;;16.59;69.44;98674.56;5085541;28;20060;-77
2022/05/25 00:22:42;;;;;;;2.90;1.42;;;;;;;16.40;70.07;98642.44;5084829;28;20098;-77
2022/05/25 00:25:12;;;;;;;2.13;1.40;;;;;;;15.44;69.49;98510.25;5085466;28;20066;-77
2022/05/25 00:27:40;;;;;;;2.78;1.50;;;;;;;16.49;69.53;98679.06;5084919;28;20052;-78
2022/05/25 00:30:10;;;;;;;4.35;1.60;;;;;;;16.52;69.50;98676.09;5083985;28;20106;-78
2022/05/25 00:32:39;;;;;;;2.28;1.65;;;;;;;16.53;69.50;98685.81;5085347;28;20095;-77
2022/05/25 00:35:08;;;;;;;2.25;1.40;;;;;;;16.53;69.19;98675.97;5085061;28;20056;-77
2022/05/25 00:37:35;;;;;;;2.45;1.60;;;;;;;16.55;69.44;98674.00;5084773;28;20057;-77
2022/05/25 00:40:03;;;;;;;1.77;1.10;;;;;;;16.54;69.59;98674.13;5085107;28;20110;-78
2022/05/25 00:42:31;;;;;;;2.35;1.45;;;;;;;15.32;69.24;98474.81;5085270;28;20121;-78
2022/05/25 00:44:58;;;;;;;2.17;1.40;;;;;;;16.52;69.40;98673.44;5084825;28;20045;-77
2022/05/25 00:47:28;;;;;;;1.90;1.27;;;;;;;16.49;69.95;98677.22;5084983;28;20056;-77
2022/05/25 00:49:56;;;;;;;1.63;1.13;;;;;;;16.48;69.67;98680.03;5085045;28;20052;-77
2022/05/25 00:52:23;;;;;;;1.90;1.30;;;;;;;16.46;69.47;98679.31;5086214;28;20119;-77
2022/05/25 00:54:53;;;;;;;2.50;1.40;;;;;;;16.45;70.02;98677.63;5087300;28;20057;-77
2022/05/25 00:57:22;;;;;;;2.38;1.30;;;;;;;16.41;69.95;98681.56;5088480;28;20056;-77
2022/05/25 00:59:58;;;;;;;2.45;1.50;;;;;;;16.40;70.08;98686.06;5088102;28;20259;-77
2022/05/25 01:02:29;;;;;;;2.20;1.40;;;;;;;16.40;70.13;98685.22;5088107;28;20109;-77
2022/05/25 01:04:57;;;;;;;2.40;1.25;;;;;;;16.42;69.88;98688.63;5088122;28;20052;-77
2022/05/25 01:07:53;;;;;;;1.90;1.30;;;;;;;16.43;70.47;98679.59;5087424;28;20247;-77
2022/05/25 01:10:33;;;;;;;3.00;1.25;;;;;;;16.41;70.50;98685.09;5088319;28;20060;-78
2022/05/25 01:13:12;;;;;;;1.85;1.27;;;;;;;16.42;70.42;98694.81;5088046;28;20094;-78
2022/05/25 01:15:51;;;;;;;1.77;1.13;;;;;;;16.38;70.58;98680.03;5088137;28;20056;-77
2022/05/25 01:18:29;;;;;;;2.13;1.13;;;;;;;16.36;70.56;98696.19;5088091;28;20422;-77
2022/05/25 01:21:02;;;;;;;1.50;1.10;;;;;;;16.40;69.88;98679.88;5087689;28;20064;-77
2022/05/25 01:24:04;;;;;;;2.30;1.40;;;;;;;16.08;70.49;98630.13;5087986;28;20060;-78
2022/05/25 01:27:06;;;;;;;2.00;1.50;;;;;;;16.39;70.39;98687.06;5087909;28;20143;-78
2022/05/25 01:29:58;;;;;;;2.25;1.50;;;;;;;16.05;70.96;98638.44;5087777;28;20056;-77
2022/05/25 01:32:33;;;;;;;2.10;1.20;;;;;;;16.39;70.63;98687.06;5087295;28;20057;-77
2022/05/25 01:35:14;;;;;;;1.98;1.20;;;;;;;15.70;70.74;98593.44;5088296;28;20055;-78
2022/05/25 01:37:48;;;;;;;1.48;1.20;;;;;;;16.34;70.85;98687.47;5087877;28;20308;-77
2022/05/25 01:40:25;;;;;;;6.07;1.83;;;;;;;16.38;71.00;98689.88;5087701;28;20122;-78
2022/05/25 01:42:58;;;;;;;1.48;1.10;;;;;;;14.96;70.33;98462.88;5087660;28;20098;-78
2022/05/25 01:45:32;;;;;;;1.57;1.10;;;;;;;16.36;70.39;98685.50;5087647;28;20052;-78
2022/05/25 01:48:03;;;;;;;2.03;1.50;;;;;;;16.38;70.25;98682.69;5087326;28;20094;-77
2022/05/25 01:50:38;;;;;;;1.70;1.15;;;;;;;16.34;71.02;98684.78;5086472;28;20113;-78
2022/05/25 01:53:07;;;;;;;2.00;1.15;;;;;;;16.37;70.41;98699.72;5087379;28;20056;-78
2022/05/25 01:55:39;;;;;;;1.52;1.35;;;;;;;16.22;70.43;98655.63;5087174;28;20056;-77
2022/05/25 01:58:10;;;;;;;1.80;1.20;;;;;;;11.69;69.84;97915.88;5087573;28;20126;-78
2022/05/25 02:00:41;;;;;;;1.77;1.20;;;;;;;16.43;70.48;98679.59;5087016;28;20098;-77
2022/05/25 02:06:05;;;;;;;1.10;1.00;;;;;;;16.44;70.32;98671.44;5087122;28;20093;-77
2022/05/25 02:08:41;;;;;;;1.83;1.20;;;;;;;16.14;70.70;98618.91;5087062;28;20102;-78
2022/05/25 02:11:16;;;;;;;1.58;1.00;;;;;;;16.41;70.27;98665.53;5087036;28;20320;-78
2022/05/25 02:14:03;;;;;;;1.45;1.00;;;;;;;16.41;70.77;98655.69;5086896;28;20114;-77
2022/05/25 02:16:41;;;;;;;1.73;1.20;;;;;;;16.43;70.00;98666.22;5086765;28;20110;-77
2022/05/25 02:19:13;;;;;;;1.95;1.33;;;;;;;16.40;70.07;98656.66;5087140;28;20309;-78
2022/05/25 02:21:46;;;;;;;2.47;1.23;;;;;;;16.41;70.14;98661.03;5086782;28;20056;-76
2022/05/25 02:24:21;;;;;;;1.27;1.05;;;;;;;15.13;69.96;98449.88;5086733;28;20350;-77
2022/05/25 02:26:53;;;;;;;1.48;1.10;;;;;;;14.92;69.76;98417.91;5086546;28;20084;-77
2022/05/25 02:29:26;;;;;;;1.67;1.10;;;;;;;16.35;70.04;98651.72;5086492;28;20064;-77
2022/05/25 02:32:01;;;;;;;1.75;1.20;;;;;;;16.31;69.97;98650.31;5085399;28;20056;-77
2022/05/25 02:34:31;;;;;;;1.83;1.02;;;;;;;16.31;70.13;98652.97;5086349;28;20063;-77
2022/05/25 02:36:59;;;;;;;2.20;1.30;;;;;;;16.36;69.94;98648.06;5086120;28;20063;-77
2022/05/25 02:39:27;;;;;;;2.28;1.30;;;;;;;16.42;70.04;98646.66;5086670;28;20181;-77
2022/05/25 02:41:56;;;;;;;1.80;1.13;;;;;;;16.43;69.57;98637.66;5086464;28;20056;-77
2022/05/25 02:44:24;;;;;;;2.42;1.35;;;;;;;16.48;69.76;98639.91;5086450;28;20063;-78
2022/05/25 02:46:57;;;;;;;1.48;1.10;;;;;;;16.45;69.23;98640.19;5086222;28;20083;-78
2022/05/25 02:49:25;;;;;;;1.60;1.10;;;;;;;16.44;69.17;98635.84;5086160;28;20232;-78
2022/05/25 02:51:53;;;;;;;2.55;1.38;;;;;;;16.39;69.60;98644.28;5086596;28;20308;-77
2022/05/25 02:54:22;;;;;;;1.70;1.08;;;;;;;16.39;69.17;98659.47;5085899;28;20327;-77
2022/05/25 02:56:49;;;;;;;2.13;1.20;;;;;;;14.16;69.13;98305.41;5085872;28;20056;-77
2022/05/25 02:59:16;;;;;;;1.40;1.05;;;;;;;16.30;69.32;98674.50;5086102;28;20067;-77
2022/05/25 03:01:44;;;;;;;1.45;1.20;;;;;;;16.32;69.35;98676.06;5086080;28;20059;-77
2022/05/25 03:04:15;;;;;;;1.48;1.10;;;;;;;16.31;69.13;98687.75;5085899;28;20204;-76
2022/05/25 03:06:44;;;;;;;1.38;1.00;;;;;;;16.30;69.23;98679.84;5085948;28;20037;-76
2022/05/25 03:09:12;;;;;;;2.00;1.27;;;;;;;16.20;69.71;98681.66;5085669;28;20228;-76
2022/05/25 03:11:40;;;;;;;2.80;1.63;;;;;;;16.20;69.33;98685.19;5085999;28;20056;-77
2022/05/25 03:14:07;;;;;;;4.55;1.38;;;;;;;16.22;69.67;98701.09;5085056;28;20052;-77
2022/05/25 03:16:35;;;;;;;1.13;1.02;;;;;;;16.17;69.64;98700.66;5085553;28;20075;-77
2022/05/25 03:19:02;;;;;;;2.20;1.25;;;;;;;16.07;69.79;98697.09;5085283;28;20056;-77
2022/05/25 03:21:30;;;;;;;1.58;1.05;;;;;;;16.10;69.32;98704.84;5086329;28;20057;-77
2022/05/25 03:23:59;;;;;;;2.22;1.23;;;;;;;16.11;69.36;98698.50;5085681;28;20055;-76
2022/05/25 03:26:26;;;;;;;3.20;1.20;;;;;;;16.15;69.08;98698.09;5085740;28;20216;-76
2022/05/25 03:28:54;;;;;;;1.85;1.20;;;;;;;16.07;69.64;98695.25;5085735;28;20059;-76
2022/05/25 03:31:21;;;;;;;2.05;1.30;;;;;;;16.09;69.67;98700.47;5085146;28;20074;-76
2022/05/25 03:33:48;;;;;;;1.55;1.10;;;;;;;16.16;69.35;98713.16;5086103;28;20053;-76
2022/05/25 03:36:16;;;;;;;1.95;1.33;;;;;;;16.15;69.28;98714.16;5085419;28;20048;-76
2022/05/25 03:38:43;;;;;;;1.63;1.30;;;;;;;16.03;69.40;98715.22;5085554;28;20056;-76
2022/05/25 03:41:15;;;;;;;1.55;1.15;;;;;;;16.03;69.67;98710.72;5085538;28;20064;-76
2022/05/25 03:43:42;;;;;;;1.50;1.20;;;;;;;16.04;69.50;98720.44;5085274;28;20054;-76
2022/05/25 03:46:09;;;;;;;11.30;8.35;;;;;;;16.05;69.62;98718.59;5085494;28;20067;-76
2022/05/25 03:48:37;;;;;;;8.43;6.50;;;;;;;15.38;69.34;98612.25;5085467;28;20056;-76
2022/05/25 03:51:04;;;;;;;5.53;4.13;;;;;;;16.08;69.47;98718.34;5085397;28;20059;-76
2022/05/25 03:53:31;;;;;;;4.65;2.60;;;;;;;16.10;69.45;98713.72;5085406;28;20063;-76
2022/05/25 03:56:00;;;;;;;3.50;2.13;;;;;;;16.14;69.43;98711.59;5085389;28;20057;-76
2022/05/25 03:58:29;;;;;;;2.65;1.42;;;;;;;16.13;69.69;98704.56;5085045;28;20324;-76
2022/05/25 04:00:56;;;;;;;1.88;1.35;;;;;;;15.46;69.20;98593.75;5085276;28;20057;-76
2022/05/25 04:03:24;;;;;;;2.45;1.38;;;;;;;16.13;69.65;98700.06;5084230;28;20052;-76
2022/05/25 04:05:51;;;;;;;1.77;1.25;;;;;;;16.16;68.92;98704.31;5084938;28;20052;-76
2022/05/25 04:08:19;;;;;;;2.80;1.10;;;;;;;15.80;69.16;98641.56;5085228;28;20212;-76
2022/05/25 04:10:46;;;;;;;2.55;1.58;;;;;;;16.11;68.99;98691.34;5085129;28;20067;-76
2022/05/25 04:13:13;;;;;;;3.47;2.22;;;;;;;16.10;69.45;98684.31;5085049;28;20222;-76
2022/05/25 04:15:43;;;;;;;2.10;1.50;;;;;;;16.07;69.40;98678.38;5084879;28;20063;-76
2022/05/25 04:18:10;;;;;;;2.55;1.70;;;;;;;16.08;69.52;98680.91;5085016;28;20057;-76
2022/05/25 04:20:37;;;;;;;5.40;4.70;;;;;;;16.10;69.43;98673.63;5085104;28;20079;-76
2022/05/25 04:23:10;;;;;;;7.53;5.18;;;;;;;16.16;69.55;98659.69;5084834;28;20052;-76
2022/05/25 04:25:38;;;;;;;8.18;6.13;;;;;;;16.23;69.19;98636.78;5085454;28;20056;-76
2022/05/25 04:28:06;;;;;;;4.38;2.83;;;;;;;16.32;69.27;98648.47;5087898;28;20067;-76
2022/05/25 04:30:33;;;;;;;4.80;3.10;;;;;;;16.36;69.50;98690.84;5088602;28;20057;-77
2022/05/25 04:33:03;;;;;;;5.57;2.63;;;;;;;16.32;69.96;98715.31;5087795;28;20056;-76
2022/05/25 04:35:31;;;;;;;2.65;1.77;;;;;;;16.16;69.43;98681.09;5088759;28;20056;-76
2022/05/25 04:37:59;;;;;;;4.53;2.70;;;;;;;16.19;70.65;98674.63;5088409;28;20052;-76
2022/05/25 04:40:29;;;;;;;7.70;5.35;;;;;;;16.18;71.01;98679.13;5087573;28;20063;-77
2022/05/25 04:42:58;;;;;;;3.83;2.38;;;;;;;16.15;70.79;98697.25;5088553;28;20335;-76
2022/05/25 04:45:27;;;;;;;3.55;1.77;;;;;;;16.12;71.05;98690.34;5088606;28;20186;-76
2022/05/25 04:47:55;;;;;;;1.70;1.20;;;;;;;16.18;70.55;98703.19;5087490;28;20067;-76
2022/05/25 04:50:25;;;;;;;2.08;1.25;;;;;;;16.18;70.39;98705.00;5088470;28;20321;-76
2022/05/25 04:52:54;;;;;;;2.22;1.25;;;;;;;16.13;70.77;98699.22;5088044;28;20048;-76
2022/05/25 04:58:19;;;;;;;2.08;1.20;;;;;;;16.06;71.99;98709.59;5050512;28;20058;-76
2022/05/25 05:00:46;;;;;;;1.27;1.00;;;;;;;16.12;70.69;98703.72;5088351;28;20056;-77
2022/05/25 05:03:13;;;;;;;1.35;1.10;;;;;;;16.10;70.85;98696.81;5088288;28;20074;-77
2022/05/25 05:05:43;;;;;;;1.45;1.05;;;;;;;16.14;71.35;98695.56;5087776;28;20052;-77
2022/05/25 05:08:10;;;;;;;1.67;1.23;;;;;;;16.15;71.08;98684.75;5088224;28;20114;-77
2022/05/25 05:10:37;;;;;;;1.80;1.13;;;;;;;16.15;70.79;98694.59;5088014;28;20114;-75
2022/05/25 05:13:07;;;;;;;1.92;1.40;;;;;;;16.14;70.84;98708.94;5087631;28;20060;-75
2022/05/25 05:15:35;;;;;;;1.58;1.10;;;;;;;16.14;70.93;98723.16;5087869;28;20113;-77
2022/05/25 05:18:02;;;;;;;3.13;1.00;;;;;;;16.10;70.65;98727.06;5087660;28;20053;-77
2022/05/25 05:20:30;;;;;;;1.67;1.10;;;;;;;16.11;70.62;98734.09;5087696;28;20060;-77
2022/05/25 05:22:58;;;;;;;1.85;1.23;;;;;;;16.09;70.25;98729.88;5087875;28;20106;-77
2022/05/25 05:25:27;;;;;;;5.32;1.55;;;;;;;16.08;70.42;98726.34;5087370;28;20052;-77
2022/05/25 05:27:54;;;;;;;2.08;1.23;;;;;;;16.00;70.84;98739.53;5087743;28;20190;-77
2022/05/25 05:30:24;;;;;;;2.35;1.45;;;;;;;15.98;70.64;98752.19;5087643;28;20220;-77
2022/05/25 05:32:52;;;;;;;2.20;1.20;;;;;;;15.99;70.82;98745.88;5086572;28;20126;-77
2022/05/25 05:35:19;;;;;;;2.15;1.52;;;;;;;15.99;70.56;98761.91;5087157;28;20053;-77
2022/05/25 05:37:51;;;;;;;3.83;1.63;;;;;;;15.99;70.74;98748.53;5086601;28;20366;-77
2022/05/25 05:40:21;;;;;;;2.83;1.50;;;;;;;16.03;71.39;98740.13;5087031;28;20059;-77
2022/05/25 05:42:51;;;;;;;3.92;1.42;;;;;;;16.01;70.56;98743.91;5087312;28;20060;-77
2022/05/25 05:45:23;;;;;;;2.10;1.40;;;;;;;15.87;70.46;98723.72;5087944;28;20060;-77
2022/05/25 05:47:57;;;;;;;1.67;1.25;;;;;;;16.11;71.05;98762.66;5087309;28;20052;-77
2022/05/25 05:50:26;;;;;;;2.00;1.30;;;;;;;16.08;70.83;98757.59;5087350;28;20126;-77
2022/05/25 05:52:53;;;;;;;2.47;1.40;;;;;;;16.13;70.51;98760.72;5087315;28;20052;-77
2022/05/25 05:55:23;;;;;;;2.15;1.50;;;;;;;16.15;70.20;98764.09;5086842;28;20056;-77
2022/05/25 05:57:51;;;;;;;2.50;1.60;;;;;;;16.14;70.44;98762.41;5087065;28;20036;-77
2022/05/25 06:00:20;;;;;;;2.03;1.35;;;;;;;16.15;70.69;98772.13;5086836;28;20056;-77
2022/05/25 06:02:50;;;;;;;3.65;1.52;;;;;;;16.17;70.07;98775.50;5085977;28;20056;-76
2022/05/25 06:05:17;;;;;;;2.17;1.30;;;;;;;16.18;70.20;98772.69;5086661;28;20054;-77
2022/05/25 06:07:44;;;;;;;1.77;1.10;;;;;;;16.22;69.77;98776.78;5086943;28;20086;-76
2022/05/25 06:10:12;;;;;;;2.25;1.58;;;;;;;16.20;70.09;98785.91;5086950;28;20125;-77
2022/05/25 06:12:41;;;;;;;2.28;1.50;;;;;;;16.20;70.02;98781.44;5086429;28;20052;-77
2022/05/25 06:20:47;;;;;;;2.70;1.88;;;;;;;16.21;70.17;98787.63;5062531;28;20056;-77
2022/05/25 06:23:14;;;;;;;2.70;1.85;;;;;;;16.18;70.11;98787.88;5086196;28;20064;-77
2022/05/25 06:25:41;;;;;;;3.50;1.98;;;;;;;16.17;69.84;98795.06;5086240;28;20049;-77
2022/05/25 06:28:10;;;;;;;4.03;1.85;;;;;;;15.85;70.13;98754.25;5086398;28;20060;-77
2022/05/25 06:30:37;;;;;;;2.75;1.95;;;;;;;15.71;69.77;98731.38;5086075;28;20311;-77
2022/05/25 06:33:06;;;;;;;2.50;1.50;;;;;;;16.17;69.79;98804.91;5085242;28;20048;-77
2022/05/25 06:35:35;;;;;;;3.08;1.60;;;;;;;16.18;70.25;98810.13;5086106;28;20097;-77
2022/05/25 06:38:03;;;;;;;2.60;1.60;;;;;;;16.20;69.91;98813.50;5086105;28;20057;-77
2022/05/25 06:40:31;;;;;;;2.85;1.60;;;;;;;15.55;69.88;98705.09;5086250;28;20056;-77
2022/05/25 06:42:59;;;;;;;2.20;1.58;;;;;;;16.30;69.53;98814.41;5086286;28;20060;-77
2022/05/25 06:45:28;;;;;;;3.03;1.90;;;;;;;16.34;69.58;98815.81;5085960;28;20106;-77
2022/05/25 06:47:56;;;;;;;2.42;1.60;;;;;;;16.31;69.61;98818.75;5086123;28;20078;-77
2022/05/25 06:50:23;;;;;;;2.88;1.40;;;;;;;16.30;69.71;98824.25;5085207;28;20057;-77
2022/05/25 06:52:52;;;;;;;2.60;1.70;;;;;;;16.34;69.57;98815.81;5086089;28;20064;-77
2022/05/25 06:55:19;;;;;;;1.95;1.38;;;;;;;16.38;69.15;98821.75;5085921;28;20056;-77
2022/05/25 06:57:46;;;;;;;2.35;1.58;;;;;;;15.82;69.14;98723.28;5085899;28;20266;-77
2022/05/25 07:00:15;;;;;;;3.08;1.60;;;;;;;16.39;69.67;98827.94;5085896;28;20106;-77
2022/05/25 07:02:43;;;;;;;3.47;1.50;;;;;;;16.39;69.64;98823.44;5085604;28;20359;-77
2022/05/25 07:05:11;;;;;;;2.65;1.52;;;;;;;16.06;69.20;98764.91;5085881;28;20101;-77
2022/05/25 07:07:38;;;;;;;2.13;1.40;;;;;;;16.41;69.25;98815.28;5085646;28;20079;-77
2022/05/25 07:10:06;;;;;;;1.70;1.10;;;;;;;16.42;69.56;98820.50;5085779;28;20060;-77
2022/05/25 07:12:34;;;;;;;5.15;2.00;;;;;;;16.49;69.15;98828.84;5085705;28;20056;-77
2022/05/25 07:15:01;;;;;;;2.50;1.50;;;;;;;16.30;69.35;98805.53;5085566;28;20052;-77
2022/05/25 07:17:28;;;;;;;2.22;1.60;;;;;;;16.54;69.60;98822.09;5085697;28;20059;-76
2022/05/25 07:19:57;;;;;;;4.05;2.60;;;;;;;16.57;69.81;98826.34;5085725;28;20059;-77
2022/05/25 07:22:24;;;;;;;3.17;1.60;;;;;;;16.60;69.58;98829.59;5085962;28;20056;-76
2022/05/25 07:24:52;;;;;;;3.88;1.70;;;;;;;16.58;69.28;98830.69;5085674;28;20194;-77
2022/05/25 07:27:19;;;;;;;3.10;1.90;;;;;;;16.59;69.17;98824.38;5085604;28;20083;-76
2022/05/25 07:29:46;;;;;;;2.05;1.60;;;;;;;16.65;69.04;98838.06;5085670;28;20110;-75
2022/05/25 07:32:14;;;;;;;4.43;1.88;;;;;;;16.66;69.47;98825.56;5085040;28;20057;-75
2022/05/25 07:34:46;;;;;;;3.30;1.75;;;;;;;16.01;69.59;98735.91;5084086;28;20105;-76
2022/05/25 07:37:16;;;;;;;2.67;1.77;;;;;;;16.70;69.16;98848.38;5085228;28;20049;-76
2022/05/25 07:39:50;;;;;;;2.97;1.67;;;;;;;16.73;69.02;98849.94;5085448;28;20105;-76
2022/05/25 07:42:18;;;;;;;2.75;1.40;;;;;;;16.74;68.94;98848.97;5085301;28;20259;-76
2022/05/25 07:44:52;;;;;;;5.03;1.67;;;;;;;16.45;68.74;98795.31;5085474;28;20105;-76
2022/05/25 07:47:19;;;;;;;4.18;2.00;;;;;;;16.77;68.90;98854.88;5085390;28;20078;-75
2022/05/25 07:49:47;;;;;;;4.40;1.52;;;;;;;16.79;69.00;98838.69;5085170;28;20060;-76
2022/05/25 07:52:16;;;;;;;4.25;1.85;;;;;;;16.85;68.88;98833.63;5085428;28;20056;-76
2022/05/25 07:54:45;;;;;;;2.92;1.75;;;;;;;16.91;68.52;98838.44;5085011;28;20113;-76
2022/05/25 07:57:12;;;;;;;2.60;1.90;;;;;;;16.97;68.37;98842.41;5085263;28;20098;-76
2022/05/25 07:59:40;;;;;;;2.22;1.70;;;;;;;17.04;68.48;98850.72;5085201;28;20052;-75
2022/05/25 08:07:50;;;;;;;;;;;;;;;17.05;68.63;98861.31;5089677;28;20327;-76
2022/05/25 08:10:21;;;;;;;4.05;1.70;;;;;;;16.35;68.27;98731.94;5089063;28;19924;-75
2022/05/25 08:12:50;;;;;;;2.00;1.40;;;;;;;17.19;68.02;98849.34;5088039;28;20059;-76
2022/05/25 08:15:19;;;;;;;2.47;1.50;;;;;;;17.27;67.41;98853.06;5088616;28;20056;-76
2022/05/25 08:17:48;;;;;;;1.88;1.20;;;;;;;17.34;67.38;98861.38;5089088;28;20068;-76
2022/05/25 08:20:16;;;;;;;2.83;1.85;;;;;;;16.71;67.14;98767.13;5088774;28;20066;-75
2022/05/25 08:22:45;;;;;;;2.28;1.48;;;;;;;17.22;66.91;98838.41;5088915;28;20056;-76
2022/05/25 08:25:17;;;;;;;1.92;1.30;;;;;;;16.60;66.97;98737.78;5088815;28;20297;-76
2022/05/25 08:27:45;;;;;;;3.80;2.05;;;;;;;17.64;67.17;98865.81;5088852;28;20094;-76
2022/05/25 08:30:15;;;;;;;3.65;1.80;;;;;;;17.76;66.78;98872.72;5071240;28;20198;-76
2022/05/25 08:32:43;;;;;;;2.08;1.30;;;;;;;16.29;66.27;98604.16;5088261;28;20052;-76
2022/05/25 08:35:11;;;;;;;2.85;1.50;;;;;;;17.86;66.11;98865.50;5088188;28;20057;-76
2022/05/25 08:37:38;;;;;;;3.58;1.35;;;;;;;17.72;66.12;98836.47;5088428;28;20060;-76
2022/05/25 08:40:07;;;;;;;2.00;1.40;;;;;;;17.66;65.41;98806.72;5087578;28;20053;-76
2022/05/25 08:42:43;;;;;;;2.92;1.52;;;;;;;16.37;64.87;98566.00;5088169;28;20056;-76
2022/05/25 08:45:10;;;;;;;2.97;1.38;;;;;;;18.37;64.91;98875.03;5088435;28;20098;-75
2022/05/25 08:47:45;;;;;;;3.22;1.60;;;;;;;18.52;64.71;98887.00;5088458;28;20048;-76
2022/05/25 08:50:12;;;;;;;2.47;1.42;;;;;;;18.02;64.34;98784.50;5088360;28;20052;-76
2022/05/25 08:52:40;;;;;;;2.58;1.58;;;;;;;18.56;63.54;98885.72;5088279;28;20048;-76
2022/05/25 08:55:13;;;;;;;2.38;1.30;;;;;;;18.56;63.44;98882.19;5088225;28;20087;-76
2022/05/25 08:57:48;;;;;;;1.92;1.30;;;;;;;18.58;63.86;98885.56;5088279;28;20117;-76
2022/05/25 09:00:18;;;;;;;3.17;1.50;;;;;;;18.44;63.77;98848.44;5088836;28;20060;-76
2022/05/25 09:02:52;;;;;;;2.15;1.48;;;;;;;18.68;63.03;98894.44;5088072;28;20052;-76
2022/05/25 09:05:23;;;;;;;2.30;1.40;;;;;;;18.77;63.30;98898.94;5087834;28;20110;-76
2022/05/25 09:08:00;;;;;;;5.40;1.63;;;;;;;18.87;62.59;98888.16;5087810;28;20052;-76
2022/05/25 09:10:31;;;;;;;2.10;1.30;;;;;;;19.12;62.37;98889.28;5088123;28;20060;-76
2022/05/25 09:13:05;;;;;;;4.68;1.67;;;;;;;19.13;62.11;98886.47;5086572;28;20056;-76
2022/05/25 09:16:15;;;;;;;3.92;1.30;;;;;;;19.23;61.66;98887.25;5087649;28;20098;-76
2022/05/25 09:18:33;;;;;;;2.38;1.52;;;;;;;19.42;61.53;98888.16;5087596;28;20057;-76
2022/05/25 09:21:03;;;;;;;3.75;1.85;;;;;;;19.83;61.05;98884.88;5087520;28;20056;-76
2022/05/25 09:23:31;;;;;;;4.93;3.15;;;;;;;20.11;60.27;98891.00;5087832;28;20064;-76
2022/05/25 09:25:59;;;;;;;4.28;2.28;;;;;;;20.24;59.91;98887.09;5087421;28;20060;-76
2022/05/25 09:28:33;;;;;;;3.13;1.90;;;;;;;20.45;59.10;98880.34;5087620;28;20106;-76
2022/05/25 09:31:02;;;;;;;3.25;1.83;;;;;;;20.61;58.48;98881.44;5087118;28;20067;-76
2022/05/25 09:33:36;;;;;;;2.63;1.63;;;;;;;20.76;57.10;98871.75;5088001;28;20060;-78
2022/05/25 09:36:14;;;;;;;4.93;2.20;;;;;;;19.94;57.63;98738.56;5087573;28;20056;-75
2022/05/25 09:38:45;;;;;;;4.82;1.88;;;;;;;20.33;57.62;98763.22;5087652;28;20304;-75
2022/05/25 09:41:15;;;;;;;2.38;1.73;;;;;;;21.03;57.26;98874.28;5087556;28;20052;-76
2022/05/25 09:43:44;;;;;;;2.20;1.33;;;;;;;20.69;57.56;98830.31;5087425;28;20040;-75
2022/05/25 09:46:20;;;;;;;2.65;1.65;;;;;;;20.74;56.65;98879.16;5087112;28;20169;-76
2022/05/25 09:48:51;;;;;;;2.50;1.42;;;;;;;20.79;58.24;98887.59;5087091;28;20083;-76
2022/05/25 09:51:27;;;;;;;2.58;1.42;;;;;;;20.88;56.92;98892.03;5087200;28;20177;-75
2022/05/25 09:54:00;;;;;;;2.30;1.40;;;;;;;21.03;57.36;98882.34;5086296;28;20056;-77
2022/05/25 09:56:33;;;;;;;1.83;1.30;;;;;;;21.10;56.53;98886.09;5087118;28;20259;-76
2022/05/25 09:59:07;;;;;;;2.33;1.50;;;;;;;21.09;57.09;98897.03;5086997;28;20056;-76
2022/05/25 10:01:42;;;;;;;3.47;1.80;;;;;;;21.05;56.53;98898.34;5086986;28;20056;-76
2022/05/25 10:04:11;;;;;;;3.15;1.90;;;;;;;20.96;57.90;98899.28;5086393;28;20057;-76
2022/05/25 10:06:50;;;;;;;2.60;1.88;;;;;;;20.88;57.02;98894.72;5085822;28;20216;-76
2022/05/25 10:09:21;;;;;;;3.17;1.98;;;;;;;20.92;57.89;98890.69;5086869;28;20060;-76
2022/05/25 10:11:50;;;;;;;3.45;2.40;;;;;;;21.00;58.29;98881.81;5086556;28;20056;-76
2022/05/25 10:14:25;;;;;;;3.53;2.17;;;;;;;21.17;57.22;98888.13;5086654;28;20060;-76
2022/05/25 10:16:53;;;;;;;3.35;2.22;;;;;;;21.26;57.70;98879.91;5086667;28;20102;-75
2022/05/25 10:19:22;;;;;;;3.00;2.20;;;;;;;21.34;57.17;98879.94;5085407;28;20316;-76
2022/05/25 10:21:52;;;;;;;2.95;2.13;;;;;;;20.72;56.78;98801.22;5086419;28;20048;-75
2022/05/25 10:24:26;;;;;;;3.40;2.00;;;;;;;21.43;55.83;98888.88;5086419;28;20110;-76
2022/05/25 10:26:56;;;;;;;3.50;1.80;;;;;;;21.45;57.21;98879.63;5086738;28;20308;-76
2022/05/25 10:38:00;;;;;;;2.40;1.70;;;;;;;20.38;56.13;98685.53;5086206;28;20062;-76
2022/05/25 10:40:28;;;;;;;2.30;1.48;;;;;;;21.51;56.13;98886.19;5085925;28;20309;-74
2022/05/25 10:42:59;;;;;;;2.05;1.25;;;;;;;21.35;54.68;98846.56;5085941;28;20060;-75
2022/05/25 10:45:38;;;;;;;2.95;1.67;;;;;;;21.62;54.49;98896.66;5085936;28;20056;-75
2022/05/25 10:48:18;;;;;;;2.75;1.90;;;;;;;21.76;55.01;98898.72;5085573;28;20053;-75
2022/05/25 10:50:50;;;;;;;2.60;1.70;;;;;;;21.96;54.18;98901.97;5086065;28;20060;-73
2022/05/25 10:53:27;;;;;;;3.35;1.70;;;;;;;22.05;53.30;98900.97;5085270;28;20122;-71
2022/05/25 10:55:59;;;;;;;2.50;1.60;;;;;;;21.99;52.88;98904.31;5085093;28;20061;-71
2022/05/25 10:58:39;;;;;;;3.38;2.13;;;;;;;22.03;52.75;98894.88;5085254;28;20110;-71
2022/05/25 11:01:23;;;;;;;3.47;2.20;;;;;;;22.02;52.42;98889.66;5085528;28;20328;-71
2022/05/25 11:03:53;;;;;;;;;;;;;;;21.86;52.46;98900.44;5086075;28;20049;-71
2022/05/25 11:06:38;;;;;;;2.92;1.60;;;;;;;21.63;53.80;98871.41;5085394;28;19958;-71
2022/05/25 11:09:21;;;;;;;2.25;1.30;;;;;;;21.73;52.58;98900.91;5085209;28;20056;-71
2022/05/25 11:11:59;;;;;;;3.92;1.90;;;;;;;21.64;53.39;98901.91;5085059;28;20101;-71
2022/05/25 11:14:39;;;;;;;3.08;1.98;;;;;;;21.64;52.49;98913.53;5085054;28;20053;-71
2022/05/25 11:17:14;;;;;;;3.33;1.73;;;;;;;21.54;52.93;98910.13;5085603;28;20052;-72
2022/05/25 11:19:54;;;;;;;4.30;2.10;;;;;;;21.48;52.61;98912.66;5085076;28;20256;-74
2022/05/25 11:22:39;;;;;;;4.28;1.90;;;;;;;21.42;52.68;98916.84;5085329;28;20117;-72
2022/05/25 11:25:30;;;;;;;2.50;1.50;;;;;;;21.35;52.43;98918.50;5085093;28;20056;-71
2022/05/25 11:28:13;;;;;;;2.10;1.30;;;;;;;21.24;53.13;98916.13;5084837;28;20098;-71
2022/05/25 11:30:50;;;;;;;2.42;1.33;;;;;;;20.86;53.83;98885.94;5085198;28;20056;-72
2022/05/25 11:33:44;;;;;;;2.08;1.45;;;;;;;20.98;53.49;98926.91;5084944;28;20053;-72
2022/05/25 11:36:20;;;;;;;1.83;1.40;;;;;;;20.58;54.73;98888.00;5084635;28;20053;-73
2022/05/25 11:39:02;;;;;;;6.97;4.88;;;;;;;20.74;54.80;98925.78;5085040;28;20063;-73
2022/05/25 11:41:39;;;;;;;2.50;1.55;;;;;;;19.73;54.65;98797.22;5085612;28;20102;-72
2022/05/25 11:44:26;;;;;;;3.65;2.22;;;;;;;20.56;55.20;98922.31;5085433;28;20060;-72
2022/05/25 11:46:55;;;;;;;3.17;1.55;;;;;;;20.30;56.32;98895.38;5085097;28;20060;-72
2022/05/25 11:49:41;;;;;;;3.25;2.00;;;;;;;20.47;55.53;98942.94;5085184;28;20041;-72
2022/05/25 11:52:20;;;;;;;3.58;2.30;;;;;;;20.46;55.71;98943.09;5085330;28;20089;-73
2022/05/25 11:55:03;;;;;;;3.40;1.88;;;;;;;20.44;55.79;98955.88;5085085;28;20060;-72
2022/05/25 11:57:39;;;;;;;4.10;1.77;;;;;;;20.36;55.94;98956.66;5085264;28;20258;-72
2022/05/25 12:00:14;;;;;;;3.00;1.85;;;;;;;20.33;56.32;98961.50;5085076;28;20056;-72
2022/05/25 12:03:16;;;;;;;7.10;1.90;;;;;;;20.18;56.35;98961.16;5085318;28;20056;-72
2022/05/25 12:05:55;;;;;;;3.40;2.00;;;;;;;20.09;56.87;98964.78;5081931;28;20379;-72
2022/05/25 12:08:34;;;;;;;2.83;1.90;;;;;;;19.97;57.03;98964.19;5085213;28;20052;-72
2022/05/25 12:11:08;;;;;;;2.92;2.15;;;;;;;19.91;57.57;98970.16;5084938;28;20064;-72
2022/05/25 12:13:41;;;;;;;7.20;2.03;;;;;;;19.83;58.27;98968.25;5084018;28;20304;-72
2022/05/25 12:16:15;;;;;;;2.55;1.52;;;;;;;19.76;58.67;98966.28;5085100;28;20129;-73
2022/05/25 12:18:51;;;;;;;3.15;2.40;;;;;;;18.60;59.70;98797.72;5085079;28;20060;-71